sensor_id;sensor_type;location;lat;lon;timestamp;temperature;humidity
69084;SHT31;56185;48.526;9.044;2023-02-05T00:01:43;3.23;83.65
69084;SHT31;56185;48.526;9.044;2023-02-05T00:04:08;3.32;83.13
69084;SHT31;56185;48.526;9.044;2023-02-05T00:06:33;3.20;83.27
69084;SHT31;56185;48.526;9.044;2023-02-05T00:08:59;3.23;83.35
69084;SHT31;56185;48.526;9.044;2023-02-05T00:11:24;3.22;83.24
69084;SHT31;56185;48.526;9.044;2023-02-05T00:13:51;3.33;83.04
69084;SHT31;56185;48.526;9.044;2023-02-05T00:16:18;3.27;82.87
69084;SHT31;56185;48.526;9.044;2023-02-05T00:18:44;3.36;82.75
69084;SHT31;56185;48.526;9.044;2023-02-05T00:21:10;3.36;82.95
69084;SHT31;56185;48.526;9.044;2023-02-05T00:23:35;3.27;83.30
69084;SHT31;56185;48.526;9.044;2023-02-05T00:26:02;3.20;83.55
69084;SHT31;56185;48.526;9.044;2023-02-05T00:28:27;3.19;83.65
69084;SHT31;56185;48.526;9.044;2023-02-05T00:30:53;3.23;83.25
69084;SHT31;56185;48.526;9.044;2023-02-05T00:33:19;3.18;83.66
69084;SHT31;56185;48.526;9.044;2023-02-05T00:35:44;3.26;83.23
69084;SHT31;56185;48.526;9.044;2023-02-05T00:38:10;3.23;83.47
69084;SHT31;56185;48.526;9.044;2023-02-05T00:40:35;3.16;83.74
69084;SHT31;56185;48.526;9.044;2023-02-05T00:43:01;3.26;83.53
69084;SHT31;56185;48.526;9.044;2023-02-05T00:45:26;3.25;83.33
69084;SHT31;56185;48.526;9.044;2023-02-05T00:47:51;3.11;83.82
69084;SHT31;56185;48.526;9.044;2023-02-05T00:50:17;3.25;84.07
69084;SHT31;56185;48.526;9.044;2023-02-05T00:52:42;3.29;83.82
69084;SHT31;56185;48.526;9.044;2023-02-05T00:55:08;3.26;83.98
69084;SHT31;56185;48.526;9.044;2023-02-05T00:57:33;3.33;84.10
69084;SHT31;56185;48.526;9.044;2023-02-05T00:59:58;3.33;84.14
69084;SHT31;56185;48.526;9.044;2023-02-05T01:02:23;3.33;84.15
69084;SHT31;56185;48.526;9.044;2023-02-05T01:04:50;3.35;83.90
69084;SHT31;56185;48.526;9.044;2023-02-05T01:07:16;3.42;83.68
69084;SHT31;56185;48.526;9.044;2023-02-05T01:09:41;3.40;83.57
69084;SHT31;56185;48.526;9.044;2023-02-05T01:12:06;3.37;83.25
69084;SHT31;56185;48.526;9.044;2023-02-05T01:14:33;3.36;83.42
69084;SHT31;56185;48.526;9.044;2023-02-05T01:16:58;3.40;83.65
69084;SHT31;56185;48.526;9.044;2023-02-05T01:19:23;3.35;83.72
69084;SHT31;56185;48.526;9.044;2023-02-05T01:21:49;3.46;83.28
69084;SHT31;56185;48.526;9.044;2023-02-05T01:24:14;3.40;83.89
69084;SHT31;56185;48.526;9.044;2023-02-05T01:26:39;3.46;83.57
69084;SHT31;56185;48.526;9.044;2023-02-05T01:29:04;3.46;83.45
69084;SHT31;56185;48.526;9.044;2023-02-05T01:31:30;3.71;83.10
69084;SHT31;56185;48.526;9.044;2023-02-05T01:33:55;3.60;83.24
69084;SHT31;56185;48.526;9.044;2023-02-05T01:36:20;3.52;83.77
69084;SHT31;56185;48.526;9.044;2023-02-05T01:38:46;3.47;83.25
69084;SHT31;56185;48.526;9.044;2023-02-05T01:41:12;3.49;83.32
69084;SHT31;56185;48.526;9.044;2023-02-05T01:43:37;3.35;83.04
69084;SHT31;56185;48.526;9.044;2023-02-05T01:46:13;3.23;83.76
69084;SHT31;56185;48.526;9.044;2023-02-05T01:48:43;3.18;83.77
69084;SHT31;56185;48.526;9.044;2023-02-05T01:51:11;3.20;84.15
69084;SHT31;56185;48.526;9.044;2023-02-05T01:53:38;3.11;84.09
69084;SHT31;56185;48.526;9.044;2023-02-05T01:56:07;3.23;83.69
69084;SHT31;56185;48.526;9.044;2023-02-05T01:58:54;3.09;83.93
69084;SHT31;56185;48.526;9.044;2023-02-05T02:01:21;3.11;83.94
69084;SHT31;56185;48.526;9.044;2023-02-05T02:03:48;3.08;84.44
69084;SHT31;56185;48.526;9.044;2023-02-05T02:06:14;3.05;84.17
69084;SHT31;56185;48.526;9.044;2023-02-05T02:08:39;2.80;85.21
69084;SHT31;56185;48.526;9.044;2023-02-05T02:11:06;2.83;84.79
69084;SHT31;56185;48.526;9.044;2023-02-05T02:13:34;2.75;85.52
69084;SHT31;56185;48.526;9.044;2023-02-05T02:16:00;2.74;84.95
69084;SHT31;56185;48.526;9.044;2023-02-05T02:18:26;2.68;86.00
69084;SHT31;56185;48.526;9.044;2023-02-05T02:29:03;2.71;86.01
69084;SHT31;56185;48.526;9.044;2023-02-05T02:31:39;2.62;86.06
69084;SHT31;56185;48.526;9.044;2023-02-05T02:34:14;2.70;86.18
69084;SHT31;56185;48.526;9.044;2023-02-05T02:36:51;2.65;86.54
69084;SHT31;56185;48.526;9.044;2023-02-05T02:39:31;2.75;85.78
69084;SHT31;56185;48.526;9.044;2023-02-05T02:44:48;2.91;85.05
69084;SHT31;56185;48.526;9.044;2023-02-05T02:47:21;2.96;84.99
69084;SHT31;56185;48.526;9.044;2023-02-05T02:49:56;2.95;85.52
69084;SHT31;56185;48.526;9.044;2023-02-05T02:52:24;2.95;84.57
69084;SHT31;56185;48.526;9.044;2023-02-05T02:54:54;3.02;84.72
69084;SHT31;56185;48.526;9.044;2023-02-05T02:57:23;2.96;84.99
69084;SHT31;56185;48.526;9.044;2023-02-05T02:59:50;2.92;84.56
69084;SHT31;56185;48.526;9.044;2023-02-05T03:02:17;2.99;84.99
69084;SHT31;56185;48.526;9.044;2023-02-05T03:04:48;2.96;84.50
69084;SHT31;56185;48.526;9.044;2023-02-05T03:07:23;3.05;84.36
69084;SHT31;56185;48.526;9.044;2023-02-05T03:12:46;3.01;83.93
69084;SHT31;56185;48.526;9.044;2023-02-05T03:15:11;2.96;84.42
69084;SHT31;56185;48.526;9.044;2023-02-05T03:17:37;2.88;84.94
69084;SHT31;56185;48.526;9.044;2023-02-05T03:20:21;2.94;84.76
69084;SHT31;56185;48.526;9.044;2023-02-05T03:22:47;2.91;84.42
69084;SHT31;56185;48.526;9.044;2023-02-05T03:25:15;2.91;84.59
69084;SHT31;56185;48.526;9.044;2023-02-05T03:27:40;2.92;84.27
69084;SHT31;56185;48.526;9.044;2023-02-05T03:30:07;2.85;84.61
69084;SHT31;56185;48.526;9.044;2023-02-05T03:32:54;2.85;84.36
69084;SHT31;56185;48.526;9.044;2023-02-05T03:43:50;2.81;85.30
69084;SHT31;56185;48.526;9.044;2023-02-05T03:57:24;2.81;84.94
69084;SHT31;56185;48.526;9.044;2023-02-05T03:59:51;2.89;84.64
69084;SHT31;56185;48.526;9.044;2023-02-05T04:02:18;2.84;84.71
69084;SHT31;56185;48.526;9.044;2023-02-05T04:04:44;2.87;84.67
69084;SHT31;56185;48.526;9.044;2023-02-05T04:07:09;2.80;85.10
69084;SHT31;56185;48.526;9.044;2023-02-05T04:09:35;2.83;85.11
69084;SHT31;56185;48.526;9.044;2023-02-05T04:12:00;2.81;84.86
69084;SHT31;56185;48.526;9.044;2023-02-05T04:14:26;2.84;84.64
69084;SHT31;56185;48.526;9.044;2023-02-05T04:16:51;2.85;84.44
69084;SHT31;56185;48.526;9.044;2023-02-05T04:19:16;2.81;84.51
69084;SHT31;56185;48.526;9.044;2023-02-05T04:21:41;2.83;84.46
69084;SHT31;56185;48.526;9.044;2023-02-05T04:24:07;2.92;83.95
69084;SHT31;56185;48.526;9.044;2023-02-05T04:26:32;2.87;84.43
69084;SHT31;56185;48.526;9.044;2023-02-05T04:28:57;2.83;84.46
69084;SHT31;56185;48.526;9.044;2023-02-05T04:31:23;2.83;84.74
69084;SHT31;56185;48.526;9.044;2023-02-05T04:33:48;2.78;84.58
69084;SHT31;56185;48.526;9.044;2023-02-05T04:36:13;2.77;84.58
69084;SHT31;56185;48.526;9.044;2023-02-05T04:38:38;2.62;84.44
69084;SHT31;56185;48.526;9.044;2023-02-05T04:41:04;2.81;83.79
69084;SHT31;56185;48.526;9.044;2023-02-05T04:43:29;2.44;84.50
69084;SHT31;56185;48.526;9.044;2023-02-05T04:45:54;2.37;84.61
69084;SHT31;56185;48.526;9.044;2023-02-05T04:48:20;2.41;85.00
69084;SHT31;56185;48.526;9.044;2023-02-05T04:50:45;2.23;85.12
69084;SHT31;56185;48.526;9.044;2023-02-05T04:53:11;2.13;85.10
69084;SHT31;56185;48.526;9.044;2023-02-05T04:55:36;2.25;84.88
69084;SHT31;56185;48.526;9.044;2023-02-05T04:58:01;2.12;85.34
69084;SHT31;56185;48.526;9.044;2023-02-05T05:00:27;2.13;85.75
69084;SHT31;56185;48.526;9.044;2023-02-05T05:02:52;1.94;86.04
69084;SHT31;56185;48.526;9.044;2023-02-05T05:05:18;1.94;85.58
69084;SHT31;56185;48.526;9.044;2023-02-05T05:07:43;2.06;85.43
69084;SHT31;56185;48.526;9.044;2023-02-05T05:10:09;2.10;85.52
69084;SHT31;56185;48.526;9.044;2023-02-05T05:12:35;2.09;85.79
69084;SHT31;56185;48.526;9.044;2023-02-05T05:15:01;2.15;85.49
69084;SHT31;56185;48.526;9.044;2023-02-05T05:17:27;2.19;85.45
69084;SHT31;56185;48.526;9.044;2023-02-05T05:19:52;2.16;85.70
69084;SHT31;56185;48.526;9.044;2023-02-05T05:22:17;2.13;85.46
69084;SHT31;56185;48.526;9.044;2023-02-05T05:24:43;2.22;85.49
69084;SHT31;56185;48.526;9.044;2023-02-05T05:27:08;2.29;85.62
69084;SHT31;56185;48.526;9.044;2023-02-05T05:29:34;2.17;85.98
69084;SHT31;56185;48.526;9.044;2023-02-05T05:31:59;2.23;85.86
69084;SHT31;56185;48.526;9.044;2023-02-05T05:34:24;2.23;85.88
69084;SHT31;56185;48.526;9.044;2023-02-05T05:36:50;2.26;85.51
69084;SHT31;56185;48.526;9.044;2023-02-05T05:39:15;2.25;85.84
69084;SHT31;56185;48.526;9.044;2023-02-05T05:41:40;2.34;85.42
69084;SHT31;56185;48.526;9.044;2023-02-05T05:44:05;2.34;85.60
69084;SHT31;56185;48.526;9.044;2023-02-05T05:46:31;2.40;84.99
69084;SHT31;56185;48.526;9.044;2023-02-05T05:48:59;2.46;84.69
69084;SHT31;56185;48.526;9.044;2023-02-05T05:51:27;2.43;84.96
69084;SHT31;56185;48.526;9.044;2023-02-05T05:53:53;2.43;84.83
69084;SHT31;56185;48.526;9.044;2023-02-05T05:56:18;2.40;84.94
69084;SHT31;56185;48.526;9.044;2023-02-05T05:58:44;2.43;84.71
69084;SHT31;56185;48.526;9.044;2023-02-05T06:01:11;2.73;83.22
69084;SHT31;56185;48.526;9.044;2023-02-05T06:03:37;2.41;84.70
69084;SHT31;56185;48.526;9.044;2023-02-05T06:06:04;2.37;84.95
69084;SHT31;56185;48.526;9.044;2023-02-05T06:08:30;2.40;85.19
69084;SHT31;56185;48.526;9.044;2023-02-05T06:10:56;2.53;84.52
69084;SHT31;56185;48.526;9.044;2023-02-05T06:13:22;2.77;83.34
69084;SHT31;56185;48.526;9.044;2023-02-05T06:15:47;2.43;84.92
69084;SHT31;56185;48.526;9.044;2023-02-05T06:18:12;2.60;84.55
69084;SHT31;56185;48.526;9.044;2023-02-05T06:20:37;2.37;84.97
69084;SHT31;56185;48.526;9.044;2023-02-05T06:23:03;2.26;85.50
69084;SHT31;56185;48.526;9.044;2023-02-05T06:25:28;2.27;85.25
69084;SHT31;56185;48.526;9.044;2023-02-05T06:27:53;2.27;85.67
69084;SHT31;56185;48.526;9.044;2023-02-05T06:30:19;2.33;86.82
69084;SHT31;56185;48.526;9.044;2023-02-05T06:32:44;2.36;85.70
69084;SHT31;56185;48.526;9.044;2023-02-05T06:35:09;2.34;85.49
69084;SHT31;56185;48.526;9.044;2023-02-05T06:37:34;2.40;85.39
69084;SHT31;56185;48.526;9.044;2023-02-05T06:39:59;2.53;84.95
69084;SHT31;56185;48.526;9.044;2023-02-05T06:42:25;2.60;84.77
69084;SHT31;56185;48.526;9.044;2023-02-05T06:44:50;2.57;84.77
69084;SHT31;56185;48.526;9.044;2023-02-05T06:47:16;2.64;84.48
69084;SHT31;56185;48.526;9.044;2023-02-05T06:49:42;2.62;84.91
69084;SHT31;56185;48.526;9.044;2023-02-05T06:52:07;2.68;84.49
69084;SHT31;56185;48.526;9.044;2023-02-05T06:54:32;2.77;84.11
69084;SHT31;56185;48.526;9.044;2023-02-05T06:56:57;2.65;83.93
69084;SHT31;56185;48.526;9.044;2023-02-05T06:59:23;2.68;83.80
69084;SHT31;56185;48.526;9.044;2023-02-05T07:01:48;2.65;84.26
69084;SHT31;56185;48.526;9.044;2023-02-05T07:04:13;2.51;84.66
69084;SHT31;56185;48.526;9.044;2023-02-05T07:06:39;2.51;85.15
69084;SHT31;56185;48.526;9.044;2023-02-05T07:09:04;2.64;84.87
69084;SHT31;56185;48.526;9.044;2023-02-05T07:11:30;2.77;84.20
69084;SHT31;56185;48.526;9.044;2023-02-05T07:13:55;2.74;84.08
69084;SHT31;56185;48.526;9.044;2023-02-05T07:16:20;2.73;84.56
69084;SHT31;56185;48.526;9.044;2023-02-05T07:18:46;2.87;84.59
69084;SHT31;56185;48.526;9.044;2023-02-05T07:21:13;2.75;84.43
69084;SHT31;56185;48.526;9.044;2023-02-05T07:23:39;2.74;83.90
69084;SHT31;56185;48.526;9.044;2023-02-05T07:26:12;2.77;84.70
69084;SHT31;56185;48.526;9.044;2023-02-05T07:28:38;2.88;83.81
69084;SHT31;56185;48.526;9.044;2023-02-05T07:31:06;2.91;83.07
69084;SHT31;56185;48.526;9.044;2023-02-05T07:33:32;2.94;83.13
69084;SHT31;56185;48.526;9.044;2023-02-05T07:35:57;2.89;82.93
69084;SHT31;56185;48.526;9.044;2023-02-05T07:38:26;2.74;83.70
69084;SHT31;56185;48.526;9.044;2023-02-05T07:40:51;2.67;84.10
69084;SHT31;56185;48.526;9.044;2023-02-05T07:43:16;2.51;84.17
69084;SHT31;56185;48.526;9.044;2023-02-05T07:45:42;2.51;84.88
69084;SHT31;56185;48.526;9.044;2023-02-05T07:48:08;2.50;85.07
69084;SHT31;56185;48.526;9.044;2023-02-05T07:50:33;2.54;85.11
69084;SHT31;56185;48.526;9.044;2023-02-05T07:52:58;2.70;84.70
69084;SHT31;56185;48.526;9.044;2023-02-05T07:55:23;2.73;84.51
69084;SHT31;56185;48.526;9.044;2023-02-05T07:57:49;2.71;84.42
69084;SHT31;56185;48.526;9.044;2023-02-05T08:00:14;2.84;84.18
69084;SHT31;56185;48.526;9.044;2023-02-05T08:02:39;2.92;84.55
69084;SHT31;56185;48.526;9.044;2023-02-05T08:05:05;2.92;84.41
69084;SHT31;56185;48.526;9.044;2023-02-05T08:07:30;3.04;83.50
69084;SHT31;56185;48.526;9.044;2023-02-05T08:09:56;2.99;83.89
69084;SHT31;56185;48.526;9.044;2023-02-05T08:12:21;3.22;83.28
69084;SHT31;56185;48.526;9.044;2023-02-05T08:14:46;3.23;83.10
69084;SHT31;56185;48.526;9.044;2023-02-05T08:17:11;3.27;83.15
69084;SHT31;56185;48.526;9.044;2023-02-05T08:19:37;3.26;83.61
69084;SHT31;56185;48.526;9.044;2023-02-05T08:22:02;3.46;82.35
69084;SHT31;56185;48.526;9.044;2023-02-05T08:24:27;3.29;83.35
69084;SHT31;56185;48.526;9.044;2023-02-05T08:26:52;3.27;83.22
69084;SHT31;56185;48.526;9.044;2023-02-05T08:29:18;3.39;83.01
69084;SHT31;56185;48.526;9.044;2023-02-05T08:31:43;3.50;82.48
69084;SHT31;56185;48.526;9.044;2023-02-05T08:34:08;3.55;82.55
69084;SHT31;56185;48.526;9.044;2023-02-05T08:36:33;3.59;82.24
69084;SHT31;56185;48.526;9.044;2023-02-05T08:38:59;3.70;82.21
69084;SHT31;56185;48.526;9.044;2023-02-05T08:41:24;3.74;81.77
69084;SHT31;56185;48.526;9.044;2023-02-05T08:43:50;3.78;81.37
69084;SHT31;56185;48.526;9.044;2023-02-05T08:46:20;3.63;81.54
69084;SHT31;56185;48.526;9.044;2023-02-05T08:48:47;3.56;82.69
69084;SHT31;56185;48.526;9.044;2023-02-05T08:51:13;3.67;82.53
69084;SHT31;56185;48.526;9.044;2023-02-05T08:53:39;3.77;82.27
69084;SHT31;56185;48.526;9.044;2023-02-05T08:56:05;3.80;82.29
69084;SHT31;56185;48.526;9.044;2023-02-05T08:58:31;3.85;82.21
69084;SHT31;56185;48.526;9.044;2023-02-05T09:01:09;3.95;81.81
69084;SHT31;56185;48.526;9.044;2023-02-05T09:03:34;4.04;81.25
69084;SHT31;56185;48.526;9.044;2023-02-05T09:06:04;4.05;81.25
69084;SHT31;56185;48.526;9.044;2023-02-05T09:08:29;4.01;81.32
69084;SHT31;56185;48.526;9.044;2023-02-05T09:10:55;4.02;81.78
69084;SHT31;56185;48.526;9.044;2023-02-05T09:13:20;4.01;81.13
69084;SHT31;56185;48.526;9.044;2023-02-05T09:15:46;4.02;81.08
69084;SHT31;56185;48.526;9.044;2023-02-05T09:18:12;4.02;81.81
69084;SHT31;56185;48.526;9.044;2023-02-05T09:20:41;4.01;81.00
69084;SHT31;56185;48.526;9.044;2023-02-05T09:23:09;4.12;80.95
69084;SHT31;56185;48.526;9.044;2023-02-05T09:25:36;4.16;80.55
69084;SHT31;56185;48.526;9.044;2023-02-05T09:28:02;4.18;80.96
69084;SHT31;56185;48.526;9.044;2023-02-05T09:30:27;4.35;81.28
69084;SHT31;56185;48.526;9.044;2023-02-05T09:32:53;4.34;81.60
69084;SHT31;56185;48.526;9.044;2023-02-05T09:35:18;4.44;80.94
69084;SHT31;56185;48.526;9.044;2023-02-05T09:37:43;4.35;81.12
69084;SHT31;56185;48.526;9.044;2023-02-05T09:40:18;4.38;81.76
69084;SHT31;56185;48.526;9.044;2023-02-05T09:42:59;4.19;81.49
69084;SHT31;56185;48.526;9.044;2023-02-05T09:45:49;4.21;81.34
69084;SHT31;56185;48.526;9.044;2023-02-05T09:50:44;4.35;81.81
69084;SHT31;56185;48.526;9.044;2023-02-05T09:53:12;4.31;81.36
69084;SHT31;56185;48.526;9.044;2023-02-05T09:55:41;4.31;81.91
69084;SHT31;56185;48.526;9.044;2023-02-05T09:58:21;4.31;81.30
69084;SHT31;56185;48.526;9.044;2023-02-05T10:01:00;4.34;81.76
69084;SHT31;56185;48.526;9.044;2023-02-05T10:03:33;4.35;81.93
69084;SHT31;56185;48.526;9.044;2023-02-05T10:11:28;4.35;83.27
69084;SHT31;56185;48.526;9.044;2023-02-05T10:14:07;4.25;83.18
69084;SHT31;56185;48.526;9.044;2023-02-05T10:20:11;4.18;83.97
69084;SHT31;56185;48.526;9.044;2023-02-05T10:25:33;4.02;85.03
69084;SHT31;56185;48.526;9.044;2023-02-05T10:34:15;4.08;85.14
69084;SHT31;56185;48.526;9.044;2023-02-05T10:36:42;4.19;84.60
69084;SHT31;56185;48.526;9.044;2023-02-05T10:39:15;4.26;84.37
69084;SHT31;56185;48.526;9.044;2023-02-05T10:41:45;4.28;85.66
69084;SHT31;56185;48.526;9.044;2023-02-05T10:44:31;4.31;85.18
69084;SHT31;56185;48.526;9.044;2023-02-05T10:47:05;4.35;85.07
69084;SHT31;56185;48.526;9.044;2023-02-05T10:49:51;4.49;85.26
69084;SHT31;56185;48.526;9.044;2023-02-05T10:52:17;4.39;85.13
69084;SHT31;56185;48.526;9.044;2023-02-05T10:54:44;4.24;85.89
69084;SHT31;56185;48.526;9.044;2023-02-05T10:57:15;4.21;86.15
69084;SHT31;56185;48.526;9.044;2023-02-05T11:00:05;4.29;86.00
69084;SHT31;56185;48.526;9.044;2023-02-05T11:02:38;4.34;85.44
69084;SHT31;56185;48.526;9.044;2023-02-05T11:05:18;4.46;84.61
69084;SHT31;56185;48.526;9.044;2023-02-05T11:07:49;4.55;84.69
69084;SHT31;56185;48.526;9.044;2023-02-05T11:10:26;4.57;84.54
69084;SHT31;56185;48.526;9.044;2023-02-05T11:12:54;4.46;85.05
69084;SHT31;56185;48.526;9.044;2023-02-05T11:15:28;4.63;84.84
69084;SHT31;56185;48.526;9.044;2023-02-05T11:18:00;4.59;85.09
69084;SHT31;56185;48.526;9.044;2023-02-05T11:20:37;4.66;85.38
69084;SHT31;56185;48.526;9.044;2023-02-05T11:25:48;4.65;84.93
69084;SHT31;56185;48.526;9.044;2023-02-05T11:28:32;4.72;85.20
69084;SHT31;56185;48.526;9.044;2023-02-05T11:33:44;4.69;85.77
69084;SHT31;56185;48.526;9.044;2023-02-05T11:36:29;4.69;85.99
69084;SHT31;56185;48.526;9.044;2023-02-05T11:38:56;4.74;85.51
69084;SHT31;56185;48.526;9.044;2023-02-05T11:41:36;4.73;84.90
69084;SHT31;56185;48.526;9.044;2023-02-05T11:44:05;4.73;85.98
69084;SHT31;56185;48.526;9.044;2023-02-05T11:46:34;4.66;85.79
69084;SHT31;56185;48.526;9.044;2023-02-05T11:49:06;4.66;86.09
69084;SHT31;56185;48.526;9.044;2023-02-05T11:51:44;4.60;86.48
69084;SHT31;56185;48.526;9.044;2023-02-05T12:04:53;4.86;85.84
69084;SHT31;56185;48.526;9.044;2023-02-05T12:07:20;4.65;86.01
69084;SHT31;56185;48.526;9.044;2023-02-05T12:09:47;4.72;86.09
69084;SHT31;56185;48.526;9.044;2023-02-05T12:12:21;4.74;85.55
69084;SHT31;56185;48.526;9.044;2023-02-05T12:17:39;4.73;86.46
69084;SHT31;56185;48.526;9.044;2023-02-05T12:20:18;4.86;85.68
69084;SHT31;56185;48.526;9.044;2023-02-05T12:29:17;4.94;86.11
69084;SHT31;56185;48.526;9.044;2023-02-05T12:37:49;4.84;86.12
69084;SHT31;56185;48.526;9.044;2023-02-05T12:51:08;4.67;85.93
69084;SHT31;56185;48.526;9.044;2023-02-05T12:54:07;4.74;86.51
69084;SHT31;56185;48.526;9.044;2023-02-05T12:59:48;4.63;86.33
69084;SHT31;56185;48.526;9.044;2023-02-05T13:05:11;4.76;86.86
69084;SHT31;56185;48.526;9.044;2023-02-05T13:07:44;4.90;86.66
69084;SHT31;56185;48.526;9.044;2023-02-05T13:10:21;4.74;86.31
69084;SHT31;56185;48.526;9.044;2023-02-05T13:12:51;4.73;85.90
69084;SHT31;56185;48.526;9.044;2023-02-05T13:15:20;4.59;85.91
69084;SHT31;56185;48.526;9.044;2023-02-05T13:17:58;4.53;86.70
69084;SHT31;56185;48.526;9.044;2023-02-05T13:20:35;4.49;87.30
69084;SHT31;56185;48.526;9.044;2023-02-05T13:23:02;4.55;87.19
69084;SHT31;56185;48.526;9.044;2023-02-05T13:27:59;4.50;87.32
69084;SHT31;56185;48.526;9.044;2023-02-05T13:30:45;4.67;87.20
69084;SHT31;56185;48.526;9.044;2023-02-05T13:33:12;4.67;86.74
69084;SHT31;56185;48.526;9.044;2023-02-05T13:43:27;4.90;87.28
69084;SHT31;56185;48.526;9.044;2023-02-05T13:49:11;4.90;87.07
69084;SHT31;56185;48.526;9.044;2023-02-05T14:00:12;4.72;86.35
69084;SHT31;56185;48.526;9.044;2023-02-05T14:02:44;4.46;87.18
69084;SHT31;56185;48.526;9.044;2023-02-05T14:05:11;4.52;87.29
69084;SHT31;56185;48.526;9.044;2023-02-05T14:07:46;4.56;87.53
69084;SHT31;56185;48.526;9.044;2023-02-05T14:10:56;4.55;86.92
69084;SHT31;56185;48.526;9.044;2023-02-05T14:13:26;4.53;86.90
69084;SHT31;56185;48.526;9.044;2023-02-05T14:15:52;4.55;87.23
69084;SHT31;56185;48.526;9.044;2023-02-05T14:18:48;4.36;89.17
69084;SHT31;56185;48.526;9.044;2023-02-05T14:23:56;4.44;88.48
69084;SHT31;56185;48.526;9.044;2023-02-05T14:26:49;4.42;88.77
69084;SHT31;56185;48.526;9.044;2023-02-05T14:32:08;4.39;89.33
69084;SHT31;56185;48.526;9.044;2023-02-05T14:36:59;4.38;89.63
69084;SHT31;56185;48.526;9.044;2023-02-05T14:39:27;4.49;89.73
69084;SHT31;56185;48.526;9.044;2023-02-05T14:41:54;4.46;89.71
69084;SHT31;56185;48.526;9.044;2023-02-05T14:44:38;4.45;88.38
69084;SHT31;56185;48.526;9.044;2023-02-05T14:47:24;4.50;88.58
69084;SHT31;56185;48.526;9.044;2023-02-05T14:49:52;4.48;88.96
69084;SHT31;56185;48.526;9.044;2023-02-05T14:52:33;4.48;87.77
69084;SHT31;56185;48.526;9.044;2023-02-05T14:57:57;4.44;87.39
69084;SHT31;56185;48.526;9.044;2023-02-05T15:00:37;4.48;87.25
69084;SHT31;56185;48.526;9.044;2023-02-05T15:13:14;4.39;87.09
69084;SHT31;56185;48.526;9.044;2023-02-05T15:15:40;4.49;87.68
69084;SHT31;56185;48.526;9.044;2023-02-05T15:20:47;4.35;87.66
69084;SHT31;56185;48.526;9.044;2023-02-05T15:23:24;4.29;88.38
69084;SHT31;56185;48.526;9.044;2023-02-05T15:25:57;4.28;87.85
69084;SHT31;56185;48.526;9.044;2023-02-05T15:28:56;4.39;88.12
69084;SHT31;56185;48.526;9.044;2023-02-05T15:31:45;4.45;86.49
69084;SHT31;56185;48.526;9.044;2023-02-05T15:34:44;4.41;86.95
69084;SHT31;56185;48.526;9.044;2023-02-05T15:37:22;4.36;87.98
69084;SHT31;56185;48.526;9.044;2023-02-05T15:39:53;4.25;88.56
69084;SHT31;56185;48.526;9.044;2023-02-05T15:42:22;4.25;88.95
69084;SHT31;56185;48.526;9.044;2023-02-05T15:44:51;4.26;87.90
69084;SHT31;56185;48.526;9.044;2023-02-05T15:47:22;4.19;87.07
69084;SHT31;56185;48.526;9.044;2023-02-05T15:49:50;4.16;88.30
69084;SHT31;56185;48.526;9.044;2023-02-05T15:52:20;4.04;89.63
69084;SHT31;56185;48.526;9.044;2023-02-05T15:54:46;4.04;88.88
69084;SHT31;56185;48.526;9.044;2023-02-05T15:57:19;3.94;89.94
69084;SHT31;56185;48.526;9.044;2023-02-05T15:59:45;4.08;88.76
69084;SHT31;56185;48.526;9.044;2023-02-05T16:02:22;4.05;89.39
69084;SHT31;56185;48.526;9.044;2023-02-05T16:05:00;4.14;89.31
69084;SHT31;56185;48.526;9.044;2023-02-05T16:07:34;4.22;88.54
69084;SHT31;56185;48.526;9.044;2023-02-05T16:10:14;4.11;89.07
69084;SHT31;56185;48.526;9.044;2023-02-05T16:13:05;4.29;88.94
69084;SHT31;56185;48.526;9.044;2023-02-05T16:15:38;4.24;89.29
69084;SHT31;56185;48.526;9.044;2023-02-05T16:18:10;4.36;88.70
69084;SHT31;56185;48.526;9.044;2023-02-05T16:20:43;4.39;87.99
69084;SHT31;56185;48.526;9.044;2023-02-05T16:23:21;4.48;87.08
69084;SHT31;56185;48.526;9.044;2023-02-05T16:26:11;4.24;87.82
69084;SHT31;56185;48.526;9.044;2023-02-05T16:28:57;4.21;87.38
69084;SHT31;56185;48.526;9.044;2023-02-05T16:31:24;4.12;87.86
69084;SHT31;56185;48.526;9.044;2023-02-05T16:33:55;4.15;88.39
69084;SHT31;56185;48.526;9.044;2023-02-05T16:36:23;4.15;88.77
69084;SHT31;56185;48.526;9.044;2023-02-05T16:38:56;4.21;88.54
69084;SHT31;56185;48.526;9.044;2023-02-05T16:41:32;4.32;87.74
69084;SHT31;56185;48.526;9.044;2023-02-05T16:44:02;4.22;88.03
69084;SHT31;56185;48.526;9.044;2023-02-05T16:46:29;4.39;86.56
69084;SHT31;56185;48.526;9.044;2023-02-05T16:59:21;4.05;88.38
69084;SHT31;56185;48.526;9.044;2023-02-05T17:01:48;4.08;88.39
69084;SHT31;56185;48.526;9.044;2023-02-05T17:04:23;4.07;87.71
69084;SHT31;56185;48.526;9.044;2023-02-05T17:06:52;4.05;87.24
69084;SHT31;56185;48.526;9.044;2023-02-05T17:14:59;3.84;88.07
69084;SHT31;56185;48.526;9.044;2023-02-05T17:17:25;3.81;87.89
69084;SHT31;56185;48.526;9.044;2023-02-05T17:25:26;3.80;88.29
69084;SHT31;56185;48.526;9.044;2023-02-05T17:27:52;3.90;87.82
69084;SHT31;56185;48.526;9.044;2023-02-05T17:30:17;3.81;88.09
69084;SHT31;56185;48.526;9.044;2023-02-05T17:32:44;3.85;87.58
69084;SHT31;56185;48.526;9.044;2023-02-05T17:35:16;3.90;87.10
69084;SHT31;56185;48.526;9.044;2023-02-05T17:37:41;3.83;87.68
69084;SHT31;56185;48.526;9.044;2023-02-05T17:40:07;3.78;87.37
69084;SHT31;56185;48.526;9.044;2023-02-05T17:42:33;3.77;87.09
69084;SHT31;56185;48.526;9.044;2023-02-05T17:44:58;3.66;88.04
69084;SHT31;56185;48.526;9.044;2023-02-05T17:47:24;3.57;88.11
69084;SHT31;56185;48.526;9.044;2023-02-05T17:49:49;3.52;87.74
69084;SHT31;56185;48.526;9.044;2023-02-05T17:52:14;3.50;88.33
69084;SHT31;56185;48.526;9.044;2023-02-05T17:54:40;3.60;87.76
69084;SHT31;56185;48.526;9.044;2023-02-05T17:57:20;3.55;88.04
69084;SHT31;56185;48.526;9.044;2023-02-05T17:59:46;3.52;88.46
69084;SHT31;56185;48.526;9.044;2023-02-05T18:02:12;3.56;88.58
69084;SHT31;56185;48.526;9.044;2023-02-05T18:04:39;3.67;88.31
69084;SHT31;56185;48.526;9.044;2023-02-05T18:07:24;3.67;87.88
69084;SHT31;56185;48.526;9.044;2023-02-05T18:09:52;3.44;88.78
69084;SHT31;56185;48.526;9.044;2023-02-05T18:12:17;3.49;87.94
69084;SHT31;56185;48.526;9.044;2023-02-05T18:14:42;3.32;89.27
69084;SHT31;56185;48.526;9.044;2023-02-05T18:17:08;3.32;89.90
69084;SHT31;56185;48.526;9.044;2023-02-05T18:19:33;3.56;88.17
69084;SHT31;56185;48.526;9.044;2023-02-05T18:21:59;3.52;88.94
69084;SHT31;56185;48.526;9.044;2023-02-05T18:24:24;3.35;89.56
69084;SHT31;56185;48.526;9.044;2023-02-05T18:26:49;3.49;88.48
69084;SHT31;56185;48.526;9.044;2023-02-05T18:29:15;3.39;89.45
69084;SHT31;56185;48.526;9.044;2023-02-05T18:31:40;3.32;89.86
69084;SHT31;56185;48.526;9.044;2023-02-05T18:34:05;3.26;90.67
69084;SHT31;56185;48.526;9.044;2023-02-05T18:36:30;3.40;89.56
69084;SHT31;56185;48.526;9.044;2023-02-05T18:38:57;3.42;88.49
69084;SHT31;56185;48.526;9.044;2023-02-05T18:41:22;3.43;88.86
69084;SHT31;56185;48.526;9.044;2023-02-05T18:43:47;3.55;87.95
69084;SHT31;56185;48.526;9.044;2023-02-05T18:46:15;3.76;87.03